Main page
METAR-TAF:

METAR-TAF

Airports :

Melilla Airport

Melilla, Spain

latitude: 35-17N, longitude: 002-57W, elevation: 47 m

Current weather observation

The report was made 32 minutes ago, at 06:00 UTC
Wind 4 kt from the West/Southwest, varying between South/Southwest and West
Temperature 17°C
Humidity 88%
Pressure 1016 hPa
Visibility 10 km or more
Few clouds at a height of 1200 ft

METAR: GEML 170600Z 24004KT 200V280 9999 FEW012 17/15 Q1016

Time: 08:32 (06:32 UTC)

Forecast

The report was made 4 hours and 32 minutes ago, at 02:00 UTC
Forecast valid from 17 at 03 UTC to 18 at 03 UTC
Wind 6 kt from the West
Visibility 10 km or more
Few clouds at a height of 1000 ft

TAF: GEML 170200Z 1703/1803 28006KT 9999 FEW010 TX24/1714Z TN17/1706Z

Weather observations and forecasts of more than 4000 airports (METAR and TAF reports).

The available stations are represented by yellow and red dots on the map.

Hover mouse over dot to see the name of the station.

Then click to see weather observations and forecasts.

To change the map : click on the green buttons with a black cross to zoom in, on the green button with a dash to zoom out, or on the green arrows for adjacent maps.


METAR-TAF: